Twyford, United Kingdom
Current Conditions -  °F | °C
As of 9:24 PM on Thursday 23 Oct 2014 (Local Time) from EGUB Reporting Station
Broken Clouds Broken Clouds  
Wind Chill: 57°   Ceiling: 2500
Heat Index: 57°   Visibility: 6mi
Dew Point: 55°   Wind: 8mph
Humidity: 94%   Direction: 160°SSE
Pressure: 30"   Gusts: NA
Location:  51.48°N, 0.86°W
Report Text: EGUB 232024Z 16007KT 9999 SCT012 BKN025 14/13 Q1016 GRN TEMPO FEW012 BKN020 WHT
Loading
Personal Weather Stations






























Interactive Weather Map
Tropical Storm Tracking
New forecast layout! Learn more

10-Day Weather Forecast

Advertisements
Track Severe Weather on mobile